createdAt,value
2018-09-21T00:00:17.905Z,941.68
2018-09-21T00:01:25.848Z,941.71
2018-09-21T00:02:34.198Z,941.75
2018-09-21T00:03:41.982Z,941.68
2018-09-21T00:04:50.080Z,941.73
2018-09-21T00:05:58.200Z,941.68
2018-09-21T00:07:06.448Z,941.65
2018-09-21T00:08:14.377Z,941.65
2018-09-21T00:09:22.295Z,941.63
2018-09-21T00:10:30.349Z,941.62
2018-09-21T00:11:38.524Z,941.59
2018-09-21T00:12:46.620Z,941.62
2018-09-21T00:13:54.549Z,941.59
2018-09-21T00:15:02.592Z,941.63
2018-09-21T00:16:10.726Z,941.59
2018-09-21T00:17:18.834Z,941.62
2018-09-21T00:18:26.794Z,941.61
2018-09-21T00:19:34.870Z,941.58
2018-09-21T00:20:42.905Z,941.62
2018-09-21T00:21:51.250Z,941.62
2018-09-21T00:22:59.150Z,941.61
2018-09-21T00:24:07.270Z,941.60
2018-09-21T00:25:15.234Z,941.62
2018-09-21T00:26:23.227Z,941.61
2018-09-21T00:27:31.352Z,941.58
2018-09-21T00:28:39.377Z,941.58
2018-09-21T00:29:47.485Z,941.54
2018-09-21T00:30:55.528Z,941.53
2018-09-21T00:32:04.888Z,941.55
2018-09-21T00:33:11.717Z,941.54
2018-09-21T00:34:19.698Z,941.59
2018-09-21T00:35:27.749Z,941.52
2018-09-21T00:36:35.923Z,941.54
2018-09-21T00:37:44.353Z,941.55
2018-09-21T00:38:51.944Z,941.54
2018-09-21T00:40:00.102Z,941.50
2018-09-21T00:41:08.278Z,941.51
2018-09-21T00:42:16.353Z,941.49
2018-09-21T00:44:36.099Z,941.45
2018-09-21T00:45:44.154Z,941.47
2018-09-21T00:46:52.223Z,941.43
2018-09-21T00:48:00.548Z,941.46
2018-09-21T00:49:08.433Z,941.43
2018-09-21T00:50:16.404Z,941.40
2018-09-21T00:51:24.463Z,941.42
2018-09-21T00:52:32.539Z,941.40
2018-09-21T00:53:40.590Z,941.42
2018-09-21T00:54:49.017Z,941.44
2018-09-21T00:55:56.821Z,941.47
2018-09-21T00:57:04.783Z,941.46
2018-09-21T00:58:12.827Z,941.49
2018-09-21T00:59:20.911Z,941.46
2018-09-21T01:00:29.066Z,941.43
2018-09-21T01:01:37.031Z,941.46
2018-09-21T01:02:45.094Z,941.44
2018-09-21T01:03:53.235Z,941.44
2018-09-21T01:05:01.235Z,941.41
2018-09-21T01:06:09.387Z,941.41
2018-09-21T01:07:17.407Z,941.39
2018-09-21T01:08:25.458Z,941.38
2018-09-21T01:09:33.471Z,941.39
2018-09-21T01:10:41.541Z,941.39
2018-09-21T01:11:49.694Z,941.38
2018-09-21T01:12:57.659Z,941.40
2018-09-21T01:14:05.857Z,941.40
2018-09-21T01:15:13.783Z,941.39
2018-09-21T01:16:21.861Z,941.38
2018-09-21T01:17:29.976Z,941.35
2018-09-21T01:18:37.988Z,941.35
2018-09-21T01:19:46.043Z,941.33
2018-09-21T01:20:54.126Z,941.30
2018-09-21T01:22:02.186Z,941.24
2018-09-21T01:23:10.556Z,941.29
2018-09-21T01:24:18.309Z,941.22
2018-09-21T01:25:26.376Z,941.26
2018-09-21T01:26:34.435Z,941.27
2018-09-21T01:27:42.927Z,941.21
2018-09-21T01:28:50.562Z,941.22
2018-09-21T01:29:58.615Z,941.21
2018-09-21T01:31:06.688Z,941.21
2018-09-21T01:32:14.806Z,941.22
2018-09-21T01:33:22.884Z,941.21
2018-09-21T01:34:30.875Z,941.21
2018-09-21T01:35:38.937Z,941.21
2018-09-21T01:36:47.618Z,941.18
2018-09-21T01:37:55.067Z,941.21
2018-09-21T01:39:03.194Z,941.21
2018-09-21T01:40:11.194Z,941.19
2018-09-21T01:41:19.244Z,941.17
2018-09-21T01:42:27.358Z,941.12
2018-09-21T01:43:35.393Z,941.10
2018-09-21T01:44:43.474Z,941.08
2018-09-21T01:45:51.498Z,941.10
2018-09-21T01:46:59.572Z,941.10
2018-09-21T01:48:07.632Z,941.05
2018-09-21T01:49:15.668Z,941.12
2018-09-21T01:50:24.223Z,941.09
2018-09-21T01:51:31.809Z,941.04
2018-09-21T01:52:39.878Z,941.04
2018-09-21T01:53:47.934Z,941.01
2018-09-21T01:54:56.001Z,941.06
2018-09-21T01:56:04.166Z,941.00
2018-09-21T01:57:12.395Z,941.00
2018-09-21T01:58:20.299Z,941.01
2018-09-21T01:59:28.252Z,941.03
2018-09-21T02:00:36.326Z,941.07
2018-09-21T02:01:44.469Z,941.03
2018-09-21T02:02:52.506Z,941.03
2018-09-21T02:04:00.513Z,941.02
2018-09-21T02:05:08.668Z,941.01
2018-09-21T02:06:16.632Z,941.04
2018-09-21T02:07:24.814Z,941.01
2018-09-21T02:08:32.735Z,941.00
2018-09-21T02:09:40.899Z,940.98
2018-09-21T02:10:49.096Z,940.93
2018-09-21T02:11:57.154Z,940.91
2018-09-21T02:13:05.435Z,940.97
2018-09-21T02:14:13.272Z,940.94
2018-09-21T02:15:21.354Z,940.98
2018-09-21T02:16:29.436Z,940.93
2018-09-21T02:17:37.578Z,940.97
2018-09-21T02:18:45.533Z,940.96
2018-09-21T02:19:53.573Z,941.00
2018-09-21T02:21:01.652Z,940.97
2018-09-21T02:22:09.736Z,940.96
2018-09-21T02:23:17.887Z,941.00
2018-09-21T02:24:25.859Z,940.98
2018-09-21T02:25:33.917Z,940.98
2018-09-21T02:26:41.962Z,941.00
2018-09-21T02:27:50.364Z,940.98
2018-09-21T02:28:58.413Z,940.95
2018-09-21T02:30:06.380Z,940.96
2018-09-21T02:31:14.448Z,940.94
2018-09-21T02:32:22.511Z,940.93
2018-09-21T02:33:30.665Z,940.92
2018-09-21T02:34:39.027Z,940.90
2018-09-21T02:35:46.694Z,940.89
2018-09-21T02:36:54.760Z,940.84
2018-09-21T02:38:03.104Z,940.86
2018-09-21T02:39:11.244Z,940.80
2018-09-21T02:40:18.951Z,940.85
2018-09-21T02:41:27.043Z,940.84
2018-09-21T02:42:35.073Z,940.84
2018-09-21T02:43:43.119Z,940.85
2018-09-21T02:44:51.292Z,940.86
2018-09-21T02:45:59.276Z,940.85
2018-09-21T02:47:07.326Z,940.88
2018-09-21T02:48:15.383Z,940.88
2018-09-21T02:49:23.451Z,940.87
2018-09-21T02:50:31.621Z,940.86
2018-09-21T02:51:39.587Z,940.87
2018-09-21T02:52:47.646Z,940.87
2018-09-21T02:53:55.699Z,940.85
2018-09-21T02:55:04.025Z,940.89
2018-09-21T02:56:12.197Z,940.88
2018-09-21T02:57:19.979Z,940.88
2018-09-21T02:58:28.974Z,940.89
2018-09-21T02:59:36.011Z,940.85
2018-09-21T03:00:44.304Z,940.89
2018-09-21T03:01:52.250Z,940.84
2018-09-21T03:03:00.206Z,940.87
2018-09-21T03:04:08.532Z,940.84
2018-09-21T03:05:16.375Z,940.83
2018-09-21T03:06:24.399Z,940.84
2018-09-21T03:07:32.542Z,940.82
2018-09-21T03:08:40.517Z,940.83
2018-09-21T03:09:48.717Z,940.77
2018-09-21T03:10:56.653Z,940.76
2018-09-21T03:12:04.710Z,940.74
2018-09-21T03:13:13.113Z,940.76
2018-09-21T03:14:21.126Z,940.75
2018-09-21T03:15:29.090Z,940.74
2018-09-21T03:16:37.240Z,940.72
2018-09-21T03:17:45.297Z,940.72
2018-09-21T03:18:53.262Z,940.71
2018-09-21T03:20:01.347Z,940.72
2018-09-21T03:21:09.408Z,940.71
2018-09-21T03:22:17.463Z,940.73
2018-09-21T03:23:25.638Z,940.69
2018-09-21T03:24:33.586Z,940.71
2018-09-21T03:25:41.661Z,940.68
2018-09-21T03:26:49.706Z,940.69
2018-09-21T03:27:57.888Z,940.67
2018-09-21T03:29:05.845Z,940.67
2018-09-21T03:30:13.907Z,940.67
2018-09-21T03:31:21.976Z,940.62
2018-09-21T03:32:30.127Z,940.64
2018-09-21T03:33:38.194Z,940.61
2018-09-21T03:34:46.574Z,940.60
2018-09-21T03:35:54.226Z,940.55
2018-09-21T03:37:02.479Z,940.58
2018-09-21T03:38:10.549Z,940.58
2018-09-21T03:39:18.699Z,940.57
2018-09-21T03:40:26.670Z,940.56
2018-09-21T03:41:35.025Z,940.58
2018-09-21T03:42:42.776Z,940.60
2018-09-21T03:43:50.855Z,940.55
2018-09-21T03:44:59.026Z,940.57
2018-09-21T03:46:07.077Z,940.59
2018-09-21T03:47:15.056Z,940.58
2018-09-21T03:48:23.302Z,940.54
2018-09-21T03:49:31.162Z,940.57
2018-09-21T03:50:39.417Z,940.58
2018-09-21T03:51:49.348Z,940.57
2018-09-21T03:52:55.607Z,940.55
2018-09-21T03:54:03.747Z,940.53
2018-09-21T03:55:11.527Z,940.58
2018-09-21T03:56:19.650Z,940.47
2018-09-21T03:57:27.658Z,940.55
2018-09-21T03:58:35.667Z,940.50
2018-09-21T03:59:43.747Z,940.53
2018-09-21T04:00:51.806Z,940.52
2018-09-21T04:01:59.953Z,940.55
2018-09-21T04:03:08.014Z,940.52
2018-09-21T04:04:15.985Z,940.51
2018-09-21T04:05:24.052Z,940.48
2018-09-21T04:06:32.117Z,940.48
2018-09-21T04:07:41.080Z,940.45
2018-09-21T04:08:48.233Z,940.49
2018-09-21T04:09:56.296Z,940.48
2018-09-21T04:11:04.372Z,940.49
2018-09-21T04:12:12.761Z,940.48
2018-09-21T04:13:20.592Z,940.48
2018-09-21T04:14:28.898Z,940.48
2018-09-21T04:15:36.613Z,940.47
2018-09-21T04:16:44.673Z,940.51
2018-09-21T04:17:52.796Z,940.46
2018-09-21T04:19:00.804Z,940.50
2018-09-21T04:20:08.869Z,940.47
2018-09-21T04:21:16.923Z,940.48
2018-09-21T04:22:25.601Z,940.47
2018-09-21T04:23:34.211Z,940.45
2018-09-21T04:26:57.295Z,940.48
2018-09-21T04:28:05.309Z,940.46
2018-09-21T04:29:13.397Z,940.44
2018-09-21T04:30:21.430Z,940.45
2018-09-21T04:31:29.490Z,940.47
2018-09-21T04:32:37.674Z,940.49
2018-09-21T04:33:45.612Z,940.48
2018-09-21T04:34:53.864Z,940.48
2018-09-21T04:36:01.952Z,940.47
2018-09-21T04:37:09.789Z,940.48
2018-09-21T04:38:17.855Z,940.47
2018-09-21T04:39:25.906Z,940.48
2018-09-21T04:40:34.078Z,940.43
2018-09-21T04:41:43.650Z,940.37
2018-09-21T04:42:50.117Z,940.39
2018-09-21T04:43:58.172Z,940.41
2018-09-21T04:45:06.231Z,940.42
2018-09-21T04:46:14.426Z,940.43
2018-09-21T04:47:22.353Z,940.40
2018-09-21T04:48:30.447Z,940.39
2018-09-21T04:49:38.475Z,940.36
2018-09-21T04:50:46.548Z,940.35
2018-09-21T04:51:54.703Z,940.35
2018-09-21T04:53:02.658Z,940.40
2018-09-21T04:54:10.730Z,940.44
2018-09-21T04:55:18.790Z,940.41
2018-09-21T04:56:26.855Z,940.42
2018-09-21T04:57:35.005Z,940.46
2018-09-21T04:58:42.950Z,940.42
2018-09-21T04:59:51.036Z,940.42
2018-09-21T05:00:59.119Z,940.45
2018-09-21T05:02:07.161Z,940.45
2018-09-21T05:03:15.333Z,940.50
2018-09-21T05:04:23.271Z,940.45
2018-09-21T05:05:31.360Z,940.48
2018-09-21T05:06:39.560Z,940.45
2018-09-21T05:07:47.532Z,940.47
2018-09-21T05:08:55.645Z,940.42
2018-09-21T05:10:03.626Z,940.44
2018-09-21T05:11:11.685Z,940.41
2018-09-21T05:12:19.749Z,940.47
2018-09-21T05:13:27.897Z,940.49
2018-09-21T05:14:35.982Z,940.47
2018-09-21T05:15:43.926Z,940.45
2018-09-21T05:16:52.006Z,940.46
2018-09-21T05:18:00.122Z,940.46
2018-09-21T05:19:08.116Z,940.47
2018-09-21T05:20:16.269Z,940.49
2018-09-21T05:21:24.250Z,940.50
2018-09-21T05:22:32.316Z,940.52
2018-09-21T05:23:40.422Z,940.56
2018-09-21T05:24:48.441Z,940.57
2018-09-21T05:25:56.589Z,940.59
2018-09-21T05:27:04.572Z,940.60
2018-09-21T05:28:12.617Z,940.61
2018-09-21T05:29:20.741Z,940.63
2018-09-21T05:30:28.768Z,940.64
2018-09-21T05:31:36.920Z,940.57
2018-09-21T05:32:44.976Z,940.57
2018-09-21T05:33:52.941Z,940.53
2018-09-21T05:35:01.005Z,940.58
2018-09-21T05:36:09.039Z,940.61
2018-09-21T05:37:17.205Z,940.62
2018-09-21T05:38:25.171Z,940.60
2018-09-21T05:39:33.209Z,940.65
2018-09-21T05:40:41.287Z,940.60
2018-09-21T05:41:49.360Z,940.59
2018-09-21T05:42:57.463Z,940.61
2018-09-21T05:44:05.527Z,940.58
2018-09-21T05:45:13.551Z,940.60
2018-09-21T05:46:21.597Z,940.53
2018-09-21T05:47:29.731Z,940.54
2018-09-21T05:48:37.835Z,940.56
2018-09-21T05:49:45.790Z,940.58
2018-09-21T05:50:53.857Z,940.61
2018-09-21T05:52:01.918Z,940.61
2018-09-21T05:53:10.073Z,940.65
2018-09-21T05:54:18.046Z,940.67
2018-09-21T05:55:26.123Z,940.65
2018-09-21T05:56:34.185Z,940.69
2018-09-21T05:57:42.252Z,940.63
2018-09-21T05:58:50.397Z,940.63
2018-09-21T05:59:58.368Z,940.63
2018-09-21T06:01:06.419Z,940.60
2018-09-21T06:02:14.568Z,940.62
2018-09-21T06:03:22.677Z,940.60
2018-09-21T06:04:30.722Z,940.61
2018-09-21T06:05:38.674Z,940.62
2018-09-21T06:06:46.756Z,940.62
2018-09-21T06:07:54.851Z,940.63
2018-09-21T06:09:02.842Z,940.63
2018-09-21T06:10:11.029Z,940.64
2018-09-21T06:11:18.997Z,940.65
2018-09-21T06:12:27.053Z,940.68
2018-09-21T06:13:35.143Z,940.69
2018-09-21T06:14:43.157Z,940.66
2018-09-21T06:15:51.247Z,940.67
2018-09-21T06:16:59.320Z,940.67
2018-09-21T06:18:07.379Z,940.66
2018-09-21T06:19:15.473Z,940.67
2018-09-21T06:20:23.589Z,940.60
2018-09-21T06:21:31.572Z,940.58
2018-09-21T06:22:45.103Z,940.62
2018-09-21T06:23:47.704Z,940.63
2018-09-21T06:24:55.759Z,940.59
2018-09-21T06:26:03.885Z,940.63
2018-09-21T06:27:11.888Z,940.67
2018-09-21T06:28:19.950Z,940.76
2018-09-21T06:29:28.013Z,940.87
2018-09-21T06:30:36.114Z,940.74
2018-09-21T06:31:44.230Z,940.71
2018-09-21T06:32:52.202Z,940.77
2018-09-21T06:34:00.277Z,940.82
2018-09-21T06:35:08.330Z,940.72
2018-09-21T06:36:16.498Z,940.76
2018-09-21T06:37:24.544Z,940.86
2018-09-21T06:38:32.525Z,940.82
2018-09-21T06:39:40.589Z,940.78
2018-09-21T06:40:48.640Z,940.76
2018-09-21T06:41:56.722Z,940.81
2018-09-21T06:43:04.823Z,940.87
2018-09-21T06:44:12.830Z,940.77
2018-09-21T06:45:20.919Z,940.71
2018-09-21T06:46:28.962Z,940.70
2018-09-21T06:47:37.147Z,940.72
2018-09-21T06:48:45.110Z,940.74
2018-09-21T06:49:53.212Z,940.68
2018-09-21T06:51:01.249Z,940.75
2018-09-21T06:52:09.401Z,940.69
2018-09-21T06:53:17.463Z,940.78
2018-09-21T06:54:25.441Z,940.84
2018-09-21T06:55:33.482Z,940.81
2018-09-21T06:56:41.560Z,940.83
2018-09-21T06:57:49.674Z,941.08
2018-09-21T06:58:57.730Z,941.03
2018-09-21T07:00:05.764Z,940.90
2018-09-21T07:01:13.977Z,941.24
2018-09-21T07:02:21.894Z,941.17
2018-09-21T07:03:29.961Z,942.45
2018-09-21T07:04:38.028Z,944.30
2018-09-21T07:05:46.084Z,943.93
2018-09-21T07:09:20.775Z,944.61
2018-09-21T07:10:28.844Z,943.74
2018-09-21T07:11:36.902Z,943.78
2018-09-21T07:12:44.988Z,943.83
2018-09-21T07:13:53.070Z,943.51
2018-09-21T07:15:01.125Z,943.64
2018-09-21T07:16:09.183Z,943.58
2018-09-21T07:17:17.263Z,943.31
2018-09-21T07:18:25.317Z,943.18
2018-09-21T07:19:33.423Z,943.19
2018-09-21T07:20:41.447Z,943.21
2018-09-21T07:21:49.527Z,943.42
2018-09-21T07:22:57.693Z,943.69
2018-09-21T07:24:05.662Z,943.62
2018-09-21T07:25:13.839Z,943.31
2018-09-21T07:26:21.809Z,943.47
2018-09-21T07:27:29.878Z,943.73
2018-09-21T07:28:37.949Z,944.06
2018-09-21T07:29:46.021Z,943.61
2018-09-21T07:30:54.189Z,943.60
2018-09-21T07:32:02.169Z,944.17
2018-09-21T07:33:10.232Z,944.23
2018-09-21T07:34:18.319Z,943.79
2018-09-21T07:35:26.415Z,943.63
2018-09-21T07:36:34.552Z,943.58
2018-09-21T07:37:42.609Z,943.65
2018-09-21T07:38:50.592Z,943.88
2018-09-21T07:39:58.667Z,943.77
2018-09-21T07:41:06.744Z,943.78
2018-09-21T07:42:14.908Z,943.56
2018-09-21T07:43:22.860Z,943.37
2018-09-21T07:44:31.072Z,943.35
2018-09-21T07:45:39.038Z,943.43
2018-09-21T07:46:47.101Z,943.65
2018-09-21T07:47:55.282Z,943.41
2018-09-21T07:49:03.316Z,943.39
2018-09-21T07:50:11.333Z,943.35
2018-09-21T07:51:19.399Z,943.26
2018-09-21T07:52:27.476Z,943.14
2018-09-21T07:53:35.536Z,942.23
2018-09-21T07:54:43.615Z,942.90
2018-09-21T07:55:51.695Z,943.43
2018-09-21T07:56:59.778Z,943.61
2018-09-21T07:58:07.937Z,943.71
2018-09-21T07:59:16.055Z,943.97
2018-09-21T08:00:23.996Z,944.19
2018-09-21T08:01:32.065Z,944.71
2018-09-21T08:02:40.234Z,945.18
2018-09-21T08:03:48.242Z,945.79
2018-09-21T08:04:56.341Z,945.50
2018-09-21T08:06:04.349Z,942.69
2018-09-21T08:07:12.493Z,943.35
2018-09-21T08:08:20.593Z,943.89
2018-09-21T08:09:28.585Z,942.81
2018-09-21T08:10:36.646Z,941.85
2018-09-21T08:11:44.725Z,942.37
2018-09-21T08:12:52.872Z,941.26
2018-09-21T08:14:00.987Z,941.36
2018-09-21T08:15:08.950Z,941.46
2018-09-21T08:16:17.027Z,941.43
2018-09-21T08:17:25.105Z,941.51
2018-09-21T08:18:33.172Z,941.46
2018-09-21T08:19:41.342Z,942.79
2018-09-21T08:20:49.323Z,944.62
2018-09-21T08:21:57.403Z,946.08
2018-09-21T08:23:05.483Z,948.24
2018-09-21T08:24:13.653Z,953.05
2018-09-21T08:25:21.709Z,954.17
2018-09-21T08:26:29.700Z,951.05
2018-09-21T08:27:37.759Z,948.40
2018-09-21T08:28:45.847Z,942.16
2018-09-21T08:29:53.900Z,941.80
2018-09-21T08:31:02.077Z,941.42
2018-09-21T08:32:10.055Z,941.26
2018-09-21T08:33:18.227Z,941.18
2018-09-21T08:34:26.193Z,941.04
2018-09-21T08:35:34.273Z,940.96
2018-09-21T08:36:42.429Z,940.92
2018-09-21T08:37:50.407Z,940.92
2018-09-21T08:38:58.494Z,940.90
2018-09-21T08:40:06.656Z,940.92
2018-09-21T08:41:14.618Z,941.04
2018-09-21T08:42:22.739Z,941.06
2018-09-21T08:43:30.762Z,941.14
2018-09-21T08:44:38.844Z,941.12
2018-09-21T08:45:46.908Z,941.19
2018-09-21T08:46:54.970Z,941.23
2018-09-21T08:48:03.137Z,941.23
2018-09-21T08:49:11.128Z,941.16
2018-09-21T08:50:19.195Z,941.11
2018-09-21T08:51:27.255Z,941.14
2018-09-21T08:52:35.435Z,941.12
2018-09-21T08:53:43.390Z,941.19
2018-09-21T08:54:51.528Z,941.14
2018-09-21T08:55:59.636Z,941.20
2018-09-21T08:57:07.614Z,941.20
2018-09-21T08:58:15.792Z,941.26
2018-09-21T08:59:23.755Z,941.21
2018-09-21T09:00:31.819Z,941.17
2018-09-21T09:01:39.892Z,941.15
2018-09-21T09:02:48.091Z,941.19
2018-09-21T09:03:56.129Z,941.20
2018-09-21T09:05:04.108Z,941.23
2018-09-21T09:06:12.170Z,941.15
2018-09-21T09:07:20.250Z,941.20
2018-09-21T09:08:28.314Z,941.16
2018-09-21T09:09:36.476Z,941.09
2018-09-21T09:10:44.455Z,941.06
2018-09-21T09:11:52.601Z,941.07
2018-09-21T09:13:00.599Z,941.10
2018-09-21T09:14:08.666Z,941.09
2018-09-21T09:15:16.845Z,941.10
2018-09-21T09:16:24.802Z,941.16
2018-09-21T09:17:32.852Z,941.12
2018-09-21T09:18:40.951Z,941.17
2018-09-21T09:19:49.016Z,941.17
2018-09-21T09:20:57.165Z,941.11
2018-09-21T09:22:05.156Z,941.10
2018-09-21T09:23:13.247Z,941.04
2018-09-21T09:24:21.308Z,941.06
2018-09-21T09:25:29.370Z,941.05
2018-09-21T09:26:37.536Z,940.98
2018-09-21T09:27:45.611Z,940.97
2018-09-21T09:28:53.640Z,940.97
2018-09-21T09:30:01.750Z,940.89
2018-09-21T09:31:09.727Z,940.88
2018-09-21T09:32:17.882Z,940.90
2018-09-21T09:33:25.852Z,940.88
2018-09-21T09:34:33.958Z,940.85
2018-09-21T09:35:42.003Z,940.83
2018-09-21T09:36:50.139Z,940.79
2018-09-21T09:37:58.238Z,940.86
2018-09-21T09:39:06.213Z,940.84
2018-09-21T09:40:14.279Z,940.83
2018-09-21T09:41:22.356Z,940.84
2018-09-21T09:42:30.474Z,940.78
2018-09-21T09:43:38.501Z,940.79
2018-09-21T09:44:46.569Z,940.75
2018-09-21T09:45:54.638Z,940.76
2018-09-21T09:47:02.702Z,940.73
2018-09-21T09:48:10.877Z,940.74
2018-09-21T09:49:18.905Z,940.71
2018-09-21T09:50:26.960Z,940.73
2018-09-21T09:51:34.993Z,940.80
2018-09-21T09:52:43.044Z,940.79
2018-09-21T09:53:51.229Z,940.80
2018-09-21T09:54:59.222Z,940.77
2018-09-21T09:56:07.402Z,940.75
2018-09-21T09:57:15.363Z,940.77
2018-09-21T09:58:23.447Z,940.75
2018-09-21T09:59:31.573Z,940.75
2018-09-21T10:00:39.552Z,940.72
2018-09-21T10:01:47.620Z,940.72
2018-09-21T10:02:55.698Z,940.69
2018-09-21T10:04:03.766Z,940.69
2018-09-21T10:05:11.939Z,940.64
2018-09-21T10:06:19.910Z,940.58
2018-09-21T10:07:27.975Z,940.58
2018-09-21T10:08:36.053Z,940.60
2018-09-21T10:09:44.122Z,940.60
2018-09-21T10:10:52.285Z,940.59
2018-09-21T10:12:00.256Z,940.46
2018-09-21T10:13:08.409Z,940.43
2018-09-21T10:14:16.409Z,940.37
2018-09-21T10:15:24.456Z,940.30
2018-09-21T10:16:32.734Z,940.27
2018-09-21T10:17:40.606Z,940.22
2018-09-21T10:18:48.689Z,940.26
2018-09-21T10:19:56.755Z,940.29
2018-09-21T10:21:04.849Z,940.27
2018-09-21T10:22:12.957Z,940.23
2018-09-21T10:23:20.989Z,940.25
2018-09-21T10:24:29.058Z,940.20
2018-09-21T10:25:37.114Z,940.27
2018-09-21T10:26:45.218Z,940.22
2018-09-21T10:27:53.524Z,940.25
2018-09-21T10:29:01.321Z,940.22
2018-09-21T10:30:09.381Z,940.21
2018-09-21T10:31:17.451Z,940.13
2018-09-21T10:32:25.531Z,940.12
2018-09-21T10:33:33.746Z,940.04
2018-09-21T10:34:41.759Z,940.08
2018-09-21T10:35:49.739Z,940.05
2018-09-21T10:36:57.836Z,940.01
2018-09-21T10:38:06.067Z,940.00
2018-09-21T10:39:14.016Z,939.98
2018-09-21T10:40:22.049Z,939.96
2018-09-21T10:41:30.084Z,939.96
2018-09-21T10:42:38.307Z,939.95
2018-09-21T10:43:47.082Z,940.01
2018-09-21T10:44:54.300Z,940.08
2018-09-21T10:46:02.374Z,940.17
2018-09-21T10:47:10.447Z,940.17
2018-09-21T10:48:18.522Z,940.20
2018-09-21T10:49:26.680Z,940.20
2018-09-21T10:50:34.665Z,940.19
2018-09-21T10:51:42.718Z,940.13
2018-09-21T10:52:50.904Z,940.16
2018-09-21T10:53:59.004Z,940.19
2018-09-21T10:55:07.050Z,940.22
2018-09-21T10:56:15.025Z,940.23
2018-09-21T10:57:23.073Z,940.30
2018-09-21T10:58:31.188Z,940.24
2018-09-21T10:59:39.319Z,940.19
2018-09-21T11:00:47.398Z,940.16
2018-09-21T11:01:55.384Z,940.10
2018-09-21T11:03:03.472Z,940.15
2018-09-21T11:04:11.534Z,940.14
2018-09-21T11:05:19.629Z,940.11
2018-09-21T11:06:27.759Z,940.12
2018-09-21T11:07:35.752Z,940.11
2018-09-21T11:08:43.820Z,940.06
2018-09-21T11:09:51.878Z,940.13
2018-09-21T11:10:59.953Z,940.13
2018-09-21T11:12:08.471Z,940.09
2018-09-21T11:13:16.101Z,940.07
2018-09-21T11:14:24.171Z,940.05
2018-09-21T11:15:32.342Z,940.02
2018-09-21T11:16:40.323Z,939.99
2018-09-21T11:17:48.435Z,940.02
2018-09-21T11:18:56.471Z,940.02
2018-09-21T11:20:04.530Z,939.96
2018-09-21T11:21:12.599Z,939.96
2018-09-21T11:22:20.687Z,939.99
2018-09-21T11:23:28.753Z,940.00
2018-09-21T11:24:36.820Z,939.97
2018-09-21T11:25:44.898Z,939.97
2018-09-21T11:26:52.941Z,940.00
2018-09-21T11:28:01.124Z,939.94
2018-09-21T11:29:09.114Z,939.92
2018-09-21T11:30:17.183Z,939.88
2018-09-21T11:31:25.353Z,939.90
2018-09-21T11:32:33.302Z,939.92
2018-09-21T11:33:41.500Z,939.92
2018-09-21T11:34:49.468Z,939.94
2018-09-21T11:35:57.545Z,939.90
2018-09-21T11:37:05.614Z,939.90
2018-09-21T11:38:13.696Z,939.90
2018-09-21T11:39:21.855Z,939.87
2018-09-21T11:40:29.836Z,939.88
2018-09-21T11:41:37.909Z,939.86
2018-09-21T11:42:45.982Z,939.83
2018-09-21T11:43:54.052Z,939.77
2018-09-21T11:45:02.233Z,939.71
2018-09-21T11:46:10.261Z,939.69
2018-09-21T11:47:18.549Z,939.71
2018-09-21T11:48:26.348Z,939.63
2018-09-21T11:49:34.414Z,939.66
2018-09-21T11:50:42.555Z,939.65
2018-09-21T11:51:50.680Z,939.66
2018-09-21T11:52:58.620Z,939.63
2018-09-21T11:54:06.705Z,939.66
2018-09-21T11:55:14.788Z,939.65
2018-09-21T11:56:22.919Z,939.62
2018-09-21T11:57:30.912Z,939.65
2018-09-21T11:58:38.994Z,939.61
2018-09-21T11:59:47.048Z,939.60
2018-09-21T12:00:55.129Z,939.52
2018-09-21T12:02:03.280Z,939.45
2018-09-21T12:03:11.316Z,939.38
2018-09-21T12:04:19.345Z,939.38
2018-09-21T12:05:27.419Z,939.36
2018-09-21T12:06:35.492Z,939.39
2018-09-21T12:07:43.610Z,939.33
2018-09-21T12:08:51.634Z,939.33
2018-09-21T12:09:59.713Z,939.36
2018-09-21T12:11:07.788Z,939.35
2018-09-21T12:12:15.844Z,939.28
2018-09-21T12:13:24.023Z,939.27
2018-09-21T12:14:31.989Z,939.25
2018-09-21T12:15:40.054Z,939.17
2018-09-21T12:16:48.179Z,939.20
2018-09-21T12:17:56.302Z,939.14
2018-09-21T12:19:04.285Z,939.15
2018-09-21T12:20:12.351Z,939.15
2018-09-21T12:21:20.432Z,939.14
2018-09-21T12:22:28.504Z,939.17
2018-09-21T12:23:36.579Z,939.14
2018-09-21T12:24:44.644Z,939.08
2018-09-21T12:25:52.710Z,939.09
2018-09-21T12:27:00.799Z,939.06
2018-09-21T12:28:09.027Z,939.06
2018-09-21T12:29:16.929Z,939.01
2018-09-21T12:30:25.011Z,939.06
2018-09-21T12:31:33.058Z,939.08
2018-09-21T12:32:41.250Z,939.08
2018-09-21T12:33:49.327Z,939.05
2018-09-21T12:34:57.290Z,939.07
2018-09-21T12:36:05.381Z,939.07
2018-09-21T12:37:13.422Z,939.00
2018-09-21T12:38:21.518Z,939.06
2018-09-21T12:39:29.685Z,939.03
2018-09-21T12:40:37.671Z,938.97
2018-09-21T12:41:45.728Z,938.97
2018-09-21T12:42:53.832Z,938.94
2018-09-21T12:44:01.876Z,938.88
2018-09-21T12:45:10.042Z,938.90
2018-09-21T12:46:18.021Z,938.92
2018-09-21T12:47:26.094Z,938.93
2018-09-21T12:48:34.164Z,938.94
2018-09-21T12:49:42.243Z,938.89
2018-09-21T12:50:50.484Z,938.85
2018-09-21T12:51:58.374Z,938.88
2018-09-21T12:53:06.549Z,938.80
2018-09-21T12:54:14.536Z,938.78
2018-09-21T12:55:22.584Z,938.81
2018-09-21T12:56:30.790Z,938.80
2018-09-21T12:57:38.762Z,938.76
2018-09-21T12:58:46.970Z,938.66
2018-09-21T12:59:54.885Z,938.67
2018-09-21T13:01:02.950Z,938.66
2018-09-21T13:02:11.122Z,938.60
2018-09-21T13:03:19.215Z,938.54
2018-09-21T13:04:27.180Z,938.55
2018-09-21T13:05:35.246Z,938.58
2018-09-21T13:06:43.289Z,938.53
2018-09-21T13:07:51.432Z,938.62
2018-09-21T13:08:59.449Z,938.60
2018-09-21T13:10:07.521Z,938.65
2018-09-21T13:11:15.607Z,938.63
2018-09-21T13:12:23.904Z,938.62
2018-09-21T13:13:31.745Z,938.56
2018-09-21T13:14:39.809Z,938.57
2018-09-21T13:15:47.907Z,938.57
2018-09-21T13:16:55.950Z,938.60
2018-09-21T13:18:04.119Z,938.61
2018-09-21T13:19:12.099Z,938.69
2018-09-21T13:20:20.181Z,938.66
2018-09-21T13:21:28.243Z,938.65
2018-09-21T13:22:36.405Z,938.74
2018-09-21T13:23:44.382Z,938.76
2018-09-21T13:24:52.445Z,938.82
2018-09-21T13:26:00.518Z,938.94
2018-09-21T13:27:08.611Z,938.96
2018-09-21T13:28:16.768Z,938.97
2018-09-21T13:29:24.739Z,938.93
2018-09-21T13:30:32.794Z,938.95
2018-09-21T13:31:40.886Z,939.05
2018-09-21T13:32:50.193Z,939.14
2018-09-21T13:33:57.019Z,939.21
2018-09-21T13:35:05.083Z,939.23
2018-09-21T13:36:13.128Z,939.26
2018-09-21T13:37:21.225Z,939.22
2018-09-21T13:38:29.384Z,939.35
2018-09-21T13:39:37.367Z,939.30
2018-09-21T13:40:45.448Z,939.40
2018-09-21T13:41:53.485Z,939.44
2018-09-21T13:43:01.562Z,939.43
2018-09-21T13:44:09.747Z,939.38
2018-09-21T13:45:17.726Z,939.34
2018-09-21T13:46:25.787Z,939.29
2018-09-21T13:47:33.909Z,939.30
2018-09-21T13:48:41.916Z,939.32
2018-09-21T13:49:50.089Z,939.41
2018-09-21T13:50:58.056Z,939.41
2018-09-21T13:52:06.124Z,939.38
2018-09-21T13:53:14.200Z,939.39
2018-09-21T13:54:22.265Z,939.40
2018-09-21T13:55:30.570Z,939.43
2018-09-21T13:56:38.397Z,939.39
2018-09-21T13:57:46.489Z,939.36
2018-09-21T13:58:54.562Z,939.33
2018-09-21T14:00:02.603Z,939.26
2018-09-21T14:01:10.789Z,939.31
2018-09-21T14:02:18.739Z,939.30
2018-09-21T14:03:26.926Z,939.31
2018-09-21T14:04:34.900Z,939.21
2018-09-21T14:05:42.935Z,939.20
2018-09-21T14:06:51.121Z,939.14
2018-09-21T14:07:59.098Z,939.17
2018-09-21T14:09:07.167Z,939.11
2018-09-21T14:10:15.230Z,939.10
2018-09-21T14:11:23.275Z,939.05
2018-09-21T14:12:31.400Z,939.00
2018-09-21T14:13:39.442Z,939.06
2018-09-21T14:14:47.506Z,939.04